Time;durP1;ratioP1;P1;durP2;ratioP2;P2;SDS_P1;SDS_P2;PMS_P1;PMS_P2;Temp;Humidity;BMP_temperature;BMP_pressure;BME280_temperature;BME280_humidity;BME280_pressure;Samples;Min_cycle;Max_cycle;Signal;HPM_P1;HPM_P2
2022/11/21 00:00:17;;;;;;;7.35;3.50;;;5.10;99.90;;;;;;4938836;28;20062;-73
2022/11/21 00:02:42;;;;;;;8.18;3.95;;;5.30;99.90;;;;;;4940894;29;20074;-74
2022/11/21 00:05:08;;;;;;;7.28;3.65;;;5.40;99.90;;;;;;4937369;29;20062;-74
2022/11/21 00:07:34;;;;;;;6.00;2.60;;;5.40;99.90;;;;;;4942364;29;20023;-74
2022/11/21 00:10:00;;;;;;;5.07;2.85;;;5.30;99.90;;;;;;4937891;28;20027;-73
2022/11/21 00:12:25;;;;;;;5.28;2.80;;;5.30;99.90;;;;;;4939083;28;20043;-74
2022/11/21 00:14:51;;;;;;;5.70;3.20;;;5.30;99.90;;;;;;4943493;28;20035;-73
2022/11/21 00:17:17;;;;;;;10.27;3.63;;;5.30;99.90;;;;;;4941103;28;20516;-73
2022/11/21 00:19:42;;;;;;;6.00;3.53;;;5.30;99.90;;;;;;4938468;28;20039;-73
2022/11/21 00:22:08;;;;;;;6.30;3.83;;;5.40;99.90;;;;;;4942899;29;20422;-73
2022/11/21 00:24:34;;;;;;;6.40;3.97;;;5.40;99.90;;;;;;4938671;28;22617;-73
2022/11/21 00:26:59;;;;;;;8.43;3.63;;;5.50;99.90;;;;;;4939972;28;20119;-74
2022/11/21 00:29:25;;;;;;;7.53;3.00;;;5.50;99.90;;;;;;4939961;28;20030;-73
2022/11/21 00:31:51;;;;;;;7.30;3.95;;;5.20;99.90;;;;;;4943388;28;20038;-73
2022/11/21 00:34:16;;;;;;;5.00;2.50;;;5.10;99.90;;;;;;4941828;28;20094;-74
2022/11/21 00:36:42;;;;;;;7.95;3.20;;;5.20;99.90;;;;;;4936668;29;20386;-73
2022/11/21 00:39:08;;;;;;;6.63;3.72;;;5.10;99.90;;;;;;4938626;28;20042;-73
2022/11/21 00:41:33;;;;;;;7.32;3.20;;;4.90;99.90;;;;;;4943984;29;20023;-73
2022/11/21 00:43:59;;;;;;;7.82;3.28;;;4.80;99.90;;;;;;4936997;28;20038;-73
2022/11/21 00:46:25;;;;;;;8.10;3.80;;;4.60;99.90;;;;;;4944977;28;20162;-73
2022/11/21 00:48:50;;;;;;;7.32;3.70;;;4.60;99.90;;;;;;4941146;28;20028;-73
2022/11/21 00:51:16;;;;;;;6.45;2.92;;;4.70;99.90;;;;;;4942474;29;20086;-73
2022/11/21 00:53:42;;;;;;;6.05;3.47;;;4.80;99.90;;;;;;4942599;28;20120;-74
2022/11/21 00:56:07;;;;;;;6.30;3.45;;;4.50;99.90;;;;;;4940221;28;20114;-74
2022/11/21 00:58:33;;;;;;;6.53;2.90;;;4.50;99.90;;;;;;4951524;28;20027;-74
2022/11/21 01:01:10;;;;;;;6.50;2.70;;;4.60;99.90;;;;;;4944233;29;20043;-73
2022/11/21 01:03:36;;;;;;;7.20;3.33;;;4.70;99.90;;;;;;4939985;29;20031;-73
2022/11/21 01:06:07;;;;;;;6.82;3.17;;;4.80;99.90;;;;;;4944356;28;20493;-73
2022/11/21 01:08:35;;;;;;;7.07;3.67;;;4.90;99.90;;;;;;4942513;28;20038;-73
2022/11/21 01:11:03;;;;;;;10.93;3.30;;;4.70;99.90;;;;;;4943448;28;20019;-73
2022/11/21 01:13:29;;;;;;;7.72;4.15;;;4.50;99.90;;;;;;4943876;28;20390;-73
2022/11/21 01:15:54;;;;;;;6.70;3.28;;;4.40;99.90;;;;;;4942974;28;20028;-73
2022/11/21 01:18:20;;;;;;;5.95;3.65;;;4.30;99.90;;;;;;4942820;28;20368;-73
2022/11/21 01:20:45;;;;;;;5.97;3.05;;;4.30;99.90;;;;;;4941987;29;20142;-73
2022/11/21 01:23:11;;;;;;;6.47;2.95;;;4.30;99.90;;;;;;4941551;28;20490;-73
2022/11/21 01:25:37;;;;;;;6.22;3.40;;;4.20;99.90;;;;;;4941592;28;20032;-74
2022/11/21 01:28:02;;;;;;;6.53;3.47;;;4.20;99.90;;;;;;4941531;29;20106;-73
2022/11/21 01:30:28;;;;;;;5.45;3.03;;;4.10;99.90;;;;;;4939999;28;20044;-73
2022/11/21 01:32:54;;;;;;;5.88;3.40;;;3.80;99.90;;;;;;4943023;28;20506;-73
2022/11/21 01:35:19;;;;;;;6.07;2.92;;;3.80;99.90;;;;;;4942087;28;20316;-73
2022/11/21 01:37:48;;;;;;;6.80;3.22;;;3.90;99.90;;;;;;4943030;29;20099;-73
2022/11/21 01:40:14;;;;;;;7.22;3.50;;;3.90;99.90;;;;;;4942500;28;20359;-73
2022/11/21 01:42:51;;;;;;;6.57;3.45;;;3.90;99.90;;;;;;4942719;28;20027;-73
2022/11/21 01:45:57;;;;;;;8.40;4.32;;;4.20;99.90;;;;;;4939400;29;20512;-73
2022/11/21 01:48:29;;;;;;;6.93;3.38;;;4.10;99.90;;;;;;4944617;29;20058;-74
2022/11/21 01:50:59;;;;;;;6.43;4.10;;;4.00;99.90;;;;;;4941684;28;20028;-74
2022/11/21 01:53:25;;;;;;;7.40;3.80;;;3.90;99.90;;;;;;4942958;28;20046;-73
2022/11/21 01:55:51;;;;;;;8.52;3.35;;;3.90;99.90;;;;;;4939844;28;20035;-73
2022/11/21 01:58:17;;;;;;;7.03;2.88;;;3.80;99.90;;;;;;4944917;28;20064;-73
2022/11/21 02:00:45;;;;;;;7.63;3.58;;;3.50;99.90;;;;;;4940838;28;20098;-73
2022/11/21 02:03:15;;;;;;;9.15;4.25;;;3.60;99.90;;;;;;4938769;28;20027;-73
2022/11/21 02:05:41;;;;;;;6.35;3.35;;;3.70;99.90;;;;;;4938666;28;20035;-73
2022/11/21 02:08:19;;;;;;;10.43;4.18;;;3.70;99.90;;;;;;4940676;28;20438;-73
2022/11/21 02:10:56;;;;;;;9.00;4.95;;;3.80;99.90;;;;;;4943231;28;20394;-73
2022/11/21 02:13:22;;;;;;;10.45;4.40;;;3.80;99.90;;;;;;4942136;28;20240;-73
2022/11/21 02:15:48;;;;;;;11.15;4.57;;;3.80;99.90;;;;;;4937764;28;20118;-73
2022/11/21 02:18:13;;;;;;;8.13;4.03;;;3.80;99.90;;;;;;4939716;28;20027;-73
2022/11/21 02:20:44;;;;;;;7.40;3.70;;;3.70;99.90;;;;;;4940266;28;20046;-73
2022/11/21 02:23:25;;;;;;;9.13;4.30;;;3.60;99.90;;;;;;4939272;28;20529;-73
2022/11/21 02:25:51;;;;;;;8.98;3.92;;;3.70;99.90;;;;;;4941383;29;20494;-73
2022/11/21 02:28:22;;;;;;;7.78;3.65;;;3.50;99.90;;;;;;4940932;28;20122;-74
2022/11/21 02:30:48;;;;;;;7.80;4.22;;;3.50;99.90;;;;;;4942676;28;20035;-73
2022/11/21 02:33:14;;;;;;;8.75;4.65;;;3.60;99.90;;;;;;4942581;28;20032;-73
2022/11/21 02:35:40;;;;;;;8.77;3.78;;;3.70;99.90;;;;;;4941772;28;20023;-74
2022/11/21 02:38:16;;;;;;;7.78;4.32;;;3.70;99.90;;;;;;4937067;28;20035;-73
2022/11/21 02:40:49;;;;;;;5.88;3.13;;;3.70;99.90;;;;;;4937530;28;20722;-73
2022/11/21 02:43:30;;;;;;;6.45;3.40;;;3.70;99.90;;;;;;4941098;28;20031;-73
2022/11/21 02:45:56;;;;;;;8.88;4.18;;;3.80;99.90;;;;;;4941722;28;20035;-73
2022/11/21 02:48:22;;;;;;;6.65;3.38;;;3.80;99.90;;;;;;4939279;28;20371;-73
2022/11/21 02:50:47;;;;;;;9.23;3.85;;;3.80;99.90;;;;;;4942620;28;20066;-74
2022/11/21 02:53:16;;;;;;;6.15;3.20;;;3.90;99.90;;;;;;4938491;29;20080;-73
2022/11/21 02:55:42;;;;;;;6.75;3.72;;;3.80;99.90;;;;;;4942995;28;20042;-73
2022/11/21 02:58:08;;;;;;;5.97;3.40;;;3.70;99.90;;;;;;4942305;29;20031;-73
2022/11/21 03:00:35;;;;;;;7.28;4.00;;;3.70;99.90;;;;;;4940782;28;20517;-73
2022/11/21 03:03:01;;;;;;;8.55;4.10;;;3.90;99.90;;;;;;4937873;28;20111;-73
2022/11/21 03:05:27;;;;;;;7.15;3.22;;;3.70;99.90;;;;;;4943428;28;20027;-73
2022/11/21 03:07:53;;;;;;;6.15;3.55;;;3.60;99.90;;;;;;4940917;28;20510;-73
2022/11/21 03:10:19;;;;;;;9.68;4.78;;;3.60;99.90;;;;;;4939650;28;20091;-73
2022/11/21 03:12:45;;;;;;;7.38;4.20;;;3.60;99.90;;;;;;4940442;28;20083;-73
2022/11/21 03:15:13;;;;;;;9.25;4.53;;;3.70;99.90;;;;;;4941871;28;20035;-73
2022/11/21 03:17:39;;;;;;;7.90;3.63;;;3.80;99.90;;;;;;4938005;28;20071;-73
2022/11/21 03:20:05;;;;;;;6.78;3.72;;;3.80;99.90;;;;;;4942720;29;20043;-73
2022/11/21 03:22:31;;;;;;;8.27;4.90;;;3.80;99.90;;;;;;4940694;28;20118;-73
2022/11/21 03:24:57;;;;;;;6.00;3.08;;;3.80;99.90;;;;;;4948399;28;20126;-73
2022/11/21 03:27:23;;;;;;;5.63;3.20;;;3.80;99.90;;;;;;4943477;28;20023;-73
2022/11/21 03:29:48;;;;;;;6.78;4.03;;;3.80;99.90;;;;;;4942272;29;20493;-73
2022/11/21 03:32:14;;;;;;;6.50;3.47;;;3.70;99.90;;;;;;4941025;28;20525;-73
2022/11/21 03:34:40;;;;;;;6.50;3.50;;;3.70;99.90;;;;;;4943918;29;20126;-73
2022/11/21 03:37:05;;;;;;;7.82;3.88;;;3.60;99.90;;;;;;4946635;28;20438;-73
2022/11/21 03:39:31;;;;;;;6.57;2.88;;;3.50;99.90;;;;;;4937124;28;20394;-73
2022/11/21 03:41:57;;;;;;;7.72;3.55;;;3.40;99.90;;;;;;4943888;28;20035;-73
2022/11/21 03:44:23;;;;;;;7.20;3.13;;;3.50;99.90;;;;;;4941423;28;20106;-73
2022/11/21 03:46:49;;;;;;;8.43;3.97;;;3.70;99.90;;;;;;4942738;28;20462;-72
2022/11/21 03:49:15;;;;;;;9.35;3.78;;;3.90;99.90;;;;;;4944700;28;20028;-72
2022/11/21 03:51:42;;;;;;;7.95;3.85;;;3.90;99.90;;;;;;4938603;28;20670;-72
2022/11/21 03:54:08;;;;;;;8.25;3.70;;;3.90;99.90;;;;;;4944903;29;20087;-71
2022/11/21 03:56:34;;;;;;;7.55;3.22;;;3.90;99.90;;;;;;4943700;28;20517;-72
2022/11/21 03:59:00;;;;;;;6.80;3.50;;;3.90;99.90;;;;;;4944221;28;20049;-72
2022/11/21 04:01:26;;;;;;;6.68;3.47;;;3.80;99.90;;;;;;4942810;28;20139;-72
2022/11/21 04:03:52;;;;;;;7.57;3.78;;;3.90;99.90;;;;;;4939301;28;20201;-72
2022/11/21 04:06:20;;;;;;;4.85;3.03;;;3.90;99.90;;;;;;4940308;28;20037;-72
2022/11/21 04:08:46;;;;;;;5.43;3.08;;;3.80;99.90;;;;;;4937531;29;20079;-72
2022/11/21 04:11:12;;;;;;;7.43;3.33;;;3.70;99.90;;;;;;4937882;28;20035;-71
2022/11/21 04:13:38;;;;;;;6.60;2.95;;;3.60;99.90;;;;;;4943038;28;20038;-72
2022/11/21 04:16:04;;;;;;;6.50;3.30;;;3.70;99.90;;;;;;4942779;28;20039;-72
2022/11/21 04:18:30;;;;;;;6.05;3.22;;;3.70;99.90;;;;;;4934661;28;20510;-72
2022/11/21 04:20:57;;;;;;;6.50;2.92;;;3.60;99.90;;;;;;4932658;28;20086;-71
2022/11/21 04:23:23;;;;;;;6.13;3.28;;;3.20;99.90;;;;;;4938151;28;20042;-72
2022/11/21 04:25:48;;;;;;;7.95;3.72;;;3.20;99.90;;;;;;4929929;28;20035;-72
2022/11/21 04:28:14;;;;;;;6.75;3.10;;;3.30;99.90;;;;;;4933341;28;20063;-72
2022/11/21 04:30:40;;;;;;;7.47;4.30;;;3.40;99.90;;;;;;4936119;28;20035;-72
2022/11/21 04:33:06;;;;;;;8.35;3.30;;;3.30;99.90;;;;;;4930177;28;20241;-71
2022/11/21 04:35:32;;;;;;;8.73;3.95;;;3.40;99.90;;;;;;4931637;28;20477;-72
2022/11/21 04:37:57;;;;;;;7.45;3.10;;;3.40;99.90;;;;;;4936824;28;20067;-72
2022/11/21 04:40:23;;;;;;;6.50;2.80;;;3.10;99.90;;;;;;4936217;28;20039;-71
2022/11/21 04:42:49;;;;;;;6.00;3.30;;;2.90;99.90;;;;;;4938960;28;20027;-72
2022/11/21 04:45:16;;;;;;;6.53;2.90;;;3.00;99.90;;;;;;4937421;29;20034;-72
2022/11/21 04:47:44;;;;;;;5.72;3.63;;;3.00;99.90;;;;;;4938648;28;20031;-72
2022/11/21 04:50:11;;;;;;;6.32;2.83;;;3.00;99.90;;;;;;4936258;28;20066;-72
2022/11/21 04:52:37;;;;;;;5.85;3.22;;;3.10;99.90;;;;;;4935059;28;20032;-72
2022/11/21 04:55:04;;;;;;;6.72;2.75;;;3.10;99.90;;;;;;4934106;29;20030;-72
2022/11/21 04:57:30;;;;;;;6.90;3.05;;;3.00;99.90;;;;;;4934221;28;20384;-72
2022/11/21 04:59:56;;;;;;;6.28;2.80;;;3.10;99.90;;;;;;4936850;28;20118;-71
2022/11/21 05:02:22;;;;;;;6.65;2.70;;;2.90;99.90;;;;;;4934450;29;20035;-71
2022/11/21 05:04:48;;;;;;;6.70;2.88;;;2.90;99.90;;;;;;4941895;28;20050;-72
2022/11/21 05:07:14;;;;;;;8.25;3.25;;;2.90;99.90;;;;;;4931189;28;20087;-72
2022/11/21 05:09:40;;;;;;;6.35;3.65;;;3.00;99.90;;;;;;4931650;28;20398;-72
2022/11/21 05:14:52;;;;;;;7.78;3.33;;;3.20;99.90;;;;;;4938228;28;20077;-72
2022/11/21 05:17:17;;;;;;;7.15;2.97;;;3.10;99.90;;;;;;4935170;28;20063;-72
2022/11/21 05:19:43;;;;;;;6.47;3.45;;;3.00;99.90;;;;;;4934670;28;20125;-71
2022/11/21 05:22:09;;;;;;;8.20;3.28;;;3.10;99.90;;;;;;4937604;28;20027;-72
2022/11/21 05:24:34;;;;;;;6.78;3.30;;;2.80;99.90;;;;;;4934204;29;20058;-72
2022/11/21 05:27:00;;;;;;;10.02;3.10;;;2.80;99.90;;;;;;4934436;28;20031;-72
2022/11/21 05:29:26;;;;;;;5.75;3.30;;;2.80;99.90;;;;;;4936837;28;20032;-72
2022/11/21 05:31:51;;;;;;;6.93;3.63;;;2.50;99.90;;;;;;4939152;29;20035;-71
2022/11/21 05:34:17;;;;;;;6.68;3.40;;;2.40;99.90;;;;;;4931025;28;20044;-71
2022/11/21 05:36:42;;;;;;;7.57;3.47;;;2.30;99.90;;;;;;4933083;28;20059;-72
2022/11/21 05:39:08;;;;;;;6.65;3.45;;;2.40;99.90;;;;;;4934067;28;20458;-72
2022/11/21 05:41:34;;;;;;;7.85;3.65;;;2.40;99.90;;;;;;4938895;28;20118;-71
2022/11/21 05:43:59;;;;;;;5.28;2.78;;;2.50;99.90;;;;;;4934448;28;20114;-71
2022/11/21 05:46:25;;;;;;;9.07;4.55;;;2.60;99.90;;;;;;4934339;28;20039;-72
2022/11/21 05:48:52;;;;;;;5.95;2.78;;;2.70;99.90;;;;;;4940532;28;20102;-72
2022/11/21 05:51:19;;;;;;;6.18;3.42;;;2.90;99.90;;;;;;4931896;28;20023;-71
2022/11/21 05:53:46;;;;;;;7.88;3.50;;;2.90;99.90;;;;;;4937881;28;20067;-71
2022/11/21 05:56:14;;;;;;;6.25;2.92;;;3.00;99.90;;;;;;4932118;28;20039;-72
2022/11/21 05:58:40;;;;;;;5.70;2.90;;;2.70;99.90;;;;;;4939647;29;20110;-72
2022/11/21 06:01:08;;;;;;;7.72;3.63;;;2.50;99.90;;;;;;4935872;28;20498;-72
2022/11/21 06:03:37;;;;;;;7.05;2.90;;;2.50;99.90;;;;;;4938081;29;20689;-72
2022/11/21 06:06:11;;;;;;;8.20;3.58;;;2.70;99.90;;;;;;4926903;28;20549;-72
2022/11/21 06:08:39;;;;;;;6.40;2.95;;;2.80;99.90;;;;;;4927494;29;20375;-71
2022/11/21 06:11:06;;;;;;;6.80;3.67;;;2.80;99.90;;;;;;4938869;28;20466;-71
2022/11/21 06:13:32;;;;;;;8.05;3.88;;;2.80;99.90;;;;;;4935875;29;20446;-72
2022/11/21 06:16:01;;;;;;;8.85;4.15;;;2.80;99.90;;;;;;4942556;28;20035;-72
2022/11/21 06:18:29;;;;;;;7.80;3.80;;;2.70;99.90;;;;;;4934448;29;20027;-72
2022/11/21 06:21:04;;;;;;;6.25;4.18;;;2.70;99.90;;;;;;4939705;29;20395;-72
2022/11/21 06:23:29;;;;;;;5.80;3.55;;;2.80;99.90;;;;;;4933372;29;20035;-72
2022/11/21 06:25:57;;;;;;;7.95;3.90;;;2.60;99.90;;;;;;4941146;28;20686;-71
2022/11/21 06:28:23;;;;;;;7.40;3.42;;;2.60;99.90;;;;;;4935945;29;20031;-71
2022/11/21 06:30:50;;;;;;;8.98;3.97;;;2.60;99.90;;;;;;4929079;29;20098;-71
2022/11/21 06:33:17;;;;;;;6.43;3.30;;;2.70;99.90;;;;;;4933366;28;20119;-71
2022/11/21 06:35:43;;;;;;;6.38;3.75;;;2.70;99.90;;;;;;4933575;29;20036;-71
2022/11/21 06:38:11;;;;;;;8.75;4.43;;;2.60;99.90;;;;;;4930198;29;20024;-71
2022/11/21 06:40:37;;;;;;;10.20;3.90;;;2.60;99.90;;;;;;4929739;28;20046;-71
2022/11/21 06:43:02;;;;;;;10.07;4.03;;;2.50;99.90;;;;;;4935085;29;20254;-71
2022/11/21 06:45:28;;;;;;;7.32;4.28;;;2.50;99.90;;;;;;4940496;28;20115;-71
2022/11/21 06:47:54;;;;;;;6.35;3.17;;;2.40;99.90;;;;;;4932660;29;20053;-72
2022/11/21 06:50:19;;;;;;;6.53;3.55;;;2.60;99.90;;;;;;4934898;28;20082;-71
2022/11/21 06:52:45;;;;;;;8.88;4.05;;;2.60;99.90;;;;;;4929788;29;20082;-70
2022/11/21 06:55:11;;;;;;;7.57;3.53;;;2.60;99.90;;;;;;4930773;28;20082;-72
2022/11/21 06:57:36;;;;;;;7.78;3.20;;;2.50;99.90;;;;;;4931952;28;20035;-72
2022/11/21 07:00:04;;;;;;;6.63;3.40;;;2.40;99.90;;;;;;4929493;29;20688;-72
2022/11/21 07:02:29;;;;;;;7.15;3.30;;;2.50;99.90;;;;;;4928468;28;20064;-72
2022/11/21 07:04:55;;;;;;;8.57;3.60;;;2.60;99.90;;;;;;4927261;28;20415;-72
2022/11/21 07:07:21;;;;;;;5.53;3.13;;;2.80;99.90;;;;;;4923599;29;20529;-72
2022/11/21 07:09:46;;;;;;;6.57;2.90;;;2.60;99.90;;;;;;4924619;29;20020;-72
2022/11/21 07:14:56;;;;;;;6.57;3.35;;;2.80;99.90;;;;;;4923548;29;20058;-72
2022/11/21 07:17:22;;;;;;;6.70;2.80;;;2.70;99.90;;;;;;4928403;28;20035;-72
2022/11/21 07:19:48;;;;;;;7.63;2.67;;;2.70;99.90;;;;;;4926695;29;20558;-72
2022/11/21 07:22:13;;;;;;;7.18;2.67;;;2.60;99.90;;;;;;4923677;29;20179;-72
2022/11/21 07:24:39;;;;;;;5.22;2.50;;;2.70;99.90;;;;;;4925552;29;20498;-72
2022/11/21 07:27:05;;;;;;;6.55;3.13;;;2.70;99.90;;;;;;4924807;28;20051;-71
2022/11/21 07:29:30;;;;;;;5.20;2.83;;;3.00;99.90;;;;;;4923972;28;20031;-72
2022/11/21 07:31:56;;;;;;;3.25;1.88;;;3.00;99.90;;;;;;4924672;29;20101;-72
2022/11/21 07:34:22;;;;;;;4.22;2.00;;;2.90;99.90;;;;;;4922987;29;20090;-72
2022/11/21 07:36:47;;;;;;;6.75;3.03;;;3.00;99.90;;;;;;4929830;29;20474;-72
2022/11/21 07:39:13;;;;;;;3.80;1.90;;;3.30;99.90;;;;;;4924566;29;20050;-72
2022/11/21 07:41:38;;;;;;;4.85;1.75;;;3.30;99.90;;;;;;4924107;29;20032;-72
2022/11/21 07:44:04;;;;;;;9.65;2.42;;;3.20;99.90;;;;;;4925313;29;20038;-72
2022/11/21 07:46:30;;;;;;;5.80;2.90;;;3.10;99.90;;;;;;4928690;28;20111;-72
2022/11/21 07:48:55;;;;;;;6.35;3.00;;;3.10;99.90;;;;;;4926399;29;20039;-72
2022/11/21 07:51:21;;;;;;;8.23;3.13;;;3.10;99.90;;;;;;4925291;29;20609;-72
2022/11/21 07:53:47;;;;;;;6.88;3.13;;;3.00;99.90;;;;;;4929398;28;20036;-72
2022/11/21 07:56:12;;;;;;;7.88;4.00;;;3.00;99.90;;;;;;4923411;29;20020;-72
2022/11/21 07:58:39;;;;;;;9.60;2.90;;;3.10;99.90;;;;;;4923812;29;20076;-72
2022/11/21 08:01:06;;;;;;;7.13;3.03;;;3.10;99.90;;;;;;4933694;29;20047;-72
2022/11/21 08:03:32;;;;;;;5.50;3.05;;;3.10;99.90;;;;;;4935014;28;20512;-72
2022/11/21 08:06:02;;;;;;;8.90;3.30;;;3.00;99.90;;;;;;4926317;29;20089;-72
2022/11/21 08:08:28;;;;;;;7.35;3.35;;;3.10;99.90;;;;;;4929584;28;20050;-72
2022/11/21 08:10:54;;;;;;;8.80;2.95;;;2.90;99.90;;;;;;4925650;29;20819;-72
2022/11/21 08:13:19;;;;;;;6.32;2.85;;;2.90;99.90;;;;;;4926286;29;20027;-72
2022/11/21 08:15:45;;;;;;;5.38;2.72;;;2.80;99.90;;;;;;4926559;29;20031;-72
2022/11/21 08:18:13;;;;;;;6.13;3.25;;;2.80;99.90;;;;;;4934875;29;20059;-72
2022/11/21 08:20:39;;;;;;;4.40;2.35;;;2.70;99.90;;;;;;4926688;29;20406;-72
2022/11/21 08:23:06;;;;;;;7.25;3.17;;;2.60;99.90;;;;;;4931861;29;20473;-72
2022/11/21 08:25:41;;;;;;;7.78;3.53;;;2.70;99.90;;;;;;4934104;28;20376;-73
2022/11/21 08:28:08;;;;;;;5.97;2.30;;;2.70;99.90;;;;;;4937373;28;20035;-72
2022/11/21 08:30:34;;;;;;;5.50;3.10;;;2.60;99.90;;;;;;4928135;28;20506;-73
2022/11/21 08:33:00;;;;;;;5.78;2.63;;;2.60;99.90;;;;;;4933233;29;20043;-72
2022/11/21 08:35:27;;;;;;;4.72;2.08;;;2.70;99.90;;;;;;4933308;29;20095;-72
2022/11/21 08:38:00;;;;;;;4.93;2.17;;;3.00;99.90;;;;;;4935743;28;20031;-73
2022/11/21 08:40:27;;;;;;;4.60;2.42;;;3.00;99.90;;;;;;4941472;28;20039;-72
2022/11/21 08:43:01;;;;;;;6.45;2.50;;;3.00;99.90;;;;;;4929359;28;20054;-73
2022/11/21 08:45:27;;;;;;;5.32;2.72;;;2.90;99.90;;;;;;4929136;28;20032;-72
2022/11/21 08:47:53;;;;;;;7.22;2.60;;;2.80;99.90;;;;;;4928747;29;20399;-73
2022/11/21 08:50:19;;;;;;;5.00;2.28;;;2.80;99.90;;;;;;4935467;28;20055;-72
2022/11/21 08:52:45;;;;;;;11.13;2.47;;;2.80;99.90;;;;;;4931324;29;20043;-72
2022/11/21 08:55:10;;;;;;;5.07;2.20;;;3.00;99.90;;;;;;4933420;29;20124;-73
2022/11/21 08:57:40;;;;;;;6.07;2.40;;;2.90;99.90;;;;;;4932439;29;20668;-73
2022/11/21 09:00:07;;;;;;;6.35;2.80;;;3.00;99.90;;;;;;4926909;29;20628;-72
2022/11/21 09:02:34;;;;;;;5.53;2.47;;;3.20;99.90;;;;;;4931912;29;20054;-72
2022/11/21 09:05:00;;;;;;;6.47;2.58;;;3.30;99.90;;;;;;4936424;29;20486;-72
2022/11/21 09:07:26;;;;;;;8.13;2.80;;;3.20;99.90;;;;;;4939821;28;20031;-72
2022/11/21 09:09:51;;;;;;;4.47;2.15;;;3.20;99.90;;;;;;4937718;29;20498;-73
2022/11/21 09:12:17;;;;;;;6.28;2.38;;;3.20;99.90;;;;;;4936488;28;20039;-72
2022/11/21 09:20:11;;;;;;;6.55;2.92;;;3.10;99.90;;;;;;4932907;29;20150;-72
2022/11/21 09:22:36;;;;;;;6.55;2.42;;;3.10;99.90;;;;;;4937052;29;20122;-72
2022/11/21 09:25:02;;;;;;;4.88;2.13;;;3.10;99.90;;;;;;4939095;29;20043;-73
2022/11/21 09:27:29;;;;;;;4.95;2.08;;;3.10;99.90;;;;;;4936678;29;20095;-73
2022/11/21 09:29:55;;;;;;;4.75;2.30;;;3.20;99.90;;;;;;4939197;29;20478;-72
2022/11/21 09:32:21;;;;;;;4.20;2.13;;;3.30;99.90;;;;;;4935849;29;20038;-72
2022/11/21 09:34:47;;;;;;;4.80;2.25;;;3.50;99.90;;;;;;4938389;28;20040;-72
2022/11/21 09:37:13;;;;;;;5.20;2.20;;;3.70;99.90;;;;;;4929432;28;20043;-73
2022/11/21 09:39:38;;;;;;;8.48;5.32;;;3.70;99.90;;;;;;4929490;29;20606;-72
2022/11/21 09:42:33;;;;;;;17.55;15.70;;;3.60;99.90;;;;;;4938999;28;20509;-73
2022/11/21 09:45:15;;;;;;;8.30;5.60;;;3.80;99.90;;;;;;4937481;28;20047;-72
2022/11/21 09:47:48;;;;;;;4.43;2.83;;;3.80;99.90;;;;;;4930046;29;20035;-72
2022/11/21 09:50:13;;;;;;;5.88;3.15;;;3.80;99.90;;;;;;4945707;28;20575;-72
2022/11/21 09:52:43;;;;;;;5.30;2.42;;;3.70;99.90;;;;;;4933819;29;20027;-72
2022/11/21 09:55:26;;;;;;;4.22;2.17;;;3.70;99.90;;;;;;4937582;28;20049;-72
2022/11/21 09:57:52;;;;;;;3.35;1.67;;;3.70;99.90;;;;;;4939199;29;20031;-73
2022/11/21 10:00:27;;;;;;;6.00;2.08;;;3.60;99.90;;;;;;4930339;29;20062;-72
2022/11/21 10:02:54;;;;;;;5.13;1.90;;;3.70;99.90;;;;;;4941185;29;20506;-73
2022/11/21 10:05:42;;;;;;;3.47;1.83;;;3.60;99.90;;;;;;4936093;29;20035;-72
2022/11/21 10:08:28;;;;;;;5.25;2.40;;;3.60;99.90;;;;;;4934898;29;20600;-72
2022/11/21 10:11:07;;;;;;;4.50;2.00;;;3.70;99.90;;;;;;4936187;29;20038;-72
2022/11/21 10:14:00;;;;;;;5.05;2.58;;;3.80;99.90;;;;;;4935892;29;20071;-72
2022/11/21 10:16:50;;;;;;;6.28;2.08;;;4.10;99.90;;;;;;4936769;28;20479;-72
2022/11/21 10:19:41;;;;;;;5.30;2.10;;;4.40;99.90;;;;;;4937219;28;20047;-73
2022/11/21 10:22:41;;;;;;;4.60;2.50;;;4.70;99.90;;;;;;4933973;29;20086;-73
2022/11/21 10:25:21;;;;;;;6.15;2.30;;;4.70;99.90;;;;;;4932773;29;20055;-73
2022/11/21 10:27:57;;;;;;;5.07;2.10;;;4.90;99.90;;;;;;4935835;29;20390;-72
2022/11/21 10:30:23;;;;;;;5.05;2.65;;;4.90;99.90;;;;;;4932444;29;20434;-73
2022/11/21 10:33:00;;;;;;;6.75;2.53;;;4.90;99.90;;;;;;4932116;28;20027;-73
2022/11/21 10:35:42;;;;;;;5.63;2.80;;;5.10;99.90;;;;;;4932131;29;20089;-73
2022/11/21 10:38:21;;;;;;;4.60;2.40;;;5.30;99.90;;;;;;4937457;29;20039;-72
2022/11/21 10:41:01;;;;;;;5.00;2.00;;;5.20;99.90;;;;;;4930805;29;20494;-72
2022/11/21 10:46:37;;;;;;;33.10;19.38;;;5.50;99.90;;;;;;4936999;29;20123;-72
2022/11/21 10:49:03;;;;;;;36.70;20.65;;;5.70;99.90;;;;;;4936452;29;20027;-72
2022/11/21 10:52:09;;;;;;;16.13;9.30;;;5.90;99.90;;;;;;4938197;28;20119;-73
2022/11/21 10:55:03;;;;;;;4.63;2.85;;;6.00;99.70;;;;;;4937650;29;20038;-72
2022/11/21 10:57:38;;;;;;;6.65;2.70;;;5.90;98.70;;;;;;4937267;29;20035;-72
2022/11/21 11:00:11;;;;;;;287.38;134.85;;;5.90;98.90;;;;;;4938146;28;20035;-73
2022/11/21 11:02:37;;;;;;;75.70;37.15;;;6.00;98.70;;;;;;4932237;29;20040;-73
2022/11/21 11:05:33;;;;;;;31.17;14.38;;;6.10;98.80;;;;;;4936569;29;20036;-73
2022/11/21 11:08:01;;;;;;;10.00;6.32;;;6.20;98.70;;;;;;4936712;29;20511;-73
2022/11/21 11:10:28;;;;;;;8.65;3.83;;;6.40;99.00;;;;;;4938351;29;20644;-72
2022/11/21 11:16:23;;;;;;;7.30;2.60;;;6.40;98.50;;;;;;4934732;29;20106;-73
2022/11/21 11:18:59;;;;;;;4.65;2.92;;;6.40;97.70;;;;;;4931328;29;20071;-72
2022/11/21 11:21:41;;;;;;;7.47;3.97;;;6.60;97.80;;;;;;4936677;28;20491;-72
2022/11/21 11:24:09;;;;;;;4.30;2.35;;;6.70;97.60;;;;;;4932261;29;20086;-72
2022/11/21 11:26:47;;;;;;;5.63;2.10;;;6.80;97.80;;;;;;4934391;29;20035;-72
2022/11/21 11:29:19;;;;;;;5.10;2.35;;;6.90;97.70;;;;;;4934574;29;20115;-72
2022/11/21 11:32:16;;;;;;;4.28;2.15;;;6.80;97.40;;;;;;4937212;29;20525;-72
2022/11/21 11:35:04;;;;;;;5.80;2.35;;;6.70;97.20;;;;;;4937901;29;20118;-72
2022/11/21 11:37:41;;;;;;;4.82;1.77;;;6.80;97.20;;;;;;4939212;29;20031;-72
2022/11/21 11:40:17;;;;;;;5.35;2.63;;;6.80;96.90;;;;;;4940777;28;20099;-72
2022/11/21 11:48:49;;;;;;;11.65;1.85;;;7.30;97.00;;;;;;4936343;29;20555;-72
2022/11/21 11:51:22;;;;;;;6.22;2.33;;;7.20;96.40;;;;;;4939200;28;20034;-72
2022/11/21 11:53:52;;;;;;;9.43;5.68;;;7.30;96.80;;;;;;4940727;29;20476;-72
2022/11/21 11:56:28;;;;;;;12.35;7.70;;;7.40;96.30;;;;;;4938622;29;20114;-73
2022/11/21 11:59:00;;;;;;;10.93;6.55;;;7.60;96.80;;;;;;4938970;28;20046;-72
2022/11/21 12:02:11;;;;;;;7.30;3.60;;;7.70;96.70;;;;;;4934737;28;20044;-73
2022/11/21 12:04:52;;;;;;;11.80;3.67;;;7.80;96.70;;;;;;4935902;28;20737;-73
2022/11/21 12:07:23;;;;;;;21.20;14.70;;;7.80;96.70;;;;;;4936287;29;20039;-72
2022/11/21 12:10:11;;;;;;;6.93;3.58;;;7.90;97.00;;;;;;4941969;29;20043;-72
2022/11/21 12:12:44;;;;;;;11.63;5.82;;;7.90;96.50;;;;;;4937787;29;20131;-72
2022/11/21 12:15:51;;;;;;;8.23;4.57;;;7.90;96.70;;;;;;4937081;28;20129;-72
2022/11/21 12:18:19;;;;;;;5.50;2.92;;;8.00;96.80;;;;;;4938420;29;20036;-73
2022/11/21 12:20:45;;;;;;;5.93;2.90;;;8.00;96.90;;;;;;4944736;29;20053;-72
2022/11/21 12:23:12;;;;;;;5.45;2.67;;;7.90;96.60;;;;;;4938601;28;20031;-72
2022/11/21 12:25:48;;;;;;;4.93;2.40;;;7.90;96.80;;;;;;4938096;28;20030;-72
2022/11/21 12:28:25;;;;;;;6.25;3.67;;;7.90;96.70;;;;;;4939753;29;20031;-73
2022/11/21 12:31:22;;;;;;;6.80;3.00;;;7.80;96.50;;;;;;4943196;29;20102;-72
2022/11/21 12:34:07;;;;;;;7.88;2.70;;;7.80;96.40;;;;;;4966666;28;20047;-72
2022/11/21 12:36:55;;;;;;;6.93;2.38;;;8.00;96.50;;;;;;4932211;29;20042;-72
2022/11/21 12:39:58;;;;;;;5.45;2.30;;;7.90;96.00;;;;;;4932947;29;20378;-72
2022/11/21 12:42:48;;;;;;;8.63;4.68;;;7.80;96.10;;;;;;4940141;29;20062;-72
2022/11/21 12:45:29;;;;;;;8.50;4.35;;;7.90;97.10;;;;;;4930905;29;20525;-72
2022/11/21 12:54:34;;;;;;;9.50;4.07;;;8.40;96.90;;;;;;4931477;29;20054;-71
2022/11/21 12:57:02;;;;;;;9.70;5.35;;;8.40;96.80;;;;;;4933327;29;20111;-72
2022/11/21 12:59:33;;;;;;;11.27;4.90;;;8.30;97.00;;;;;;4939999;29;20093;-72
2022/11/21 13:02:06;;;;;;;12.98;6.93;;;8.20;97.00;;;;;;4938825;28;20051;-72
2022/11/21 13:04:39;;;;;;;7.15;3.58;;;8.10;96.90;;;;;;4931079;29;20593;-72
2022/11/21 13:07:06;;;;;;;6.47;3.13;;;8.00;97.20;;;;;;4928595;29;20374;-72
2022/11/21 13:09:39;;;;;;;7.13;3.75;;;7.90;97.10;;;;;;4933945;29;20027;-72
2022/11/21 13:12:07;;;;;;;5.82;3.10;;;7.80;97.10;;;;;;4939627;28;20031;-73
2022/11/21 13:14:55;;;;;;;20.45;7.88;;;7.70;97.60;;;;;;4933849;29;20063;-72
2022/11/21 13:17:29;;;;;;;10.27;5.20;;;7.60;98.00;;;;;;4932297;29;20108;-72
2022/11/21 13:19:58;;;;;;;7.97;3.35;;;7.50;98.80;;;;;;4930923;29;20036;-72
2022/11/21 13:22:36;;;;;;;11.95;4.65;;;7.40;98.60;;;;;;4934492;29;20027;-72
2022/11/21 13:25:08;;;;;;;8.88;4.07;;;7.40;98.80;;;;;;4937596;28;20035;-72
2022/11/21 13:27:38;;;;;;;9.93;3.75;;;7.40;99.10;;;;;;4932379;28;20031;-72
2022/11/21 13:30:06;;;;;;;6.93;3.50;;;7.40;98.80;;;;;;4929304;29;20034;-71
2022/11/21 13:32:59;;;;;;;12.45;6.15;;;7.40;98.70;;;;;;4942474;28;20589;-71
2022/11/21 13:35:24;;;;;;;14.40;7.45;;;7.40;98.70;;;;;;4935912;28;20031;-71
2022/11/21 13:38:05;;;;;;;9.77;4.63;;;7.50;99.10;;;;;;4932246;29;20073;-72